createdAt,value
2023-11-18T00:00:40.184Z,100048.46
2023-11-18T00:03:07.104Z,100052.33
2023-11-18T00:05:33.971Z,100054.81
2023-11-18T00:08:00.937Z,100060.62
2023-11-18T00:10:27.797Z,100060.80
2023-11-18T00:12:54.547Z,100062.39
2023-11-18T00:15:21.584Z,100063.09
2023-11-18T00:17:48.181Z,100058.16
2023-11-18T00:20:16.773Z,100064.14
2023-11-18T00:22:44.084Z,100067.48
2023-11-18T00:25:14.972Z,100070.30
2023-11-18T00:27:41.918Z,100073.98
2023-11-18T00:30:11.533Z,100073.61
2023-11-18T00:32:39.593Z,100076.07
2023-11-18T00:35:07.897Z,100075.73
2023-11-18T00:37:34.681Z,100080.46
2023-11-18T00:40:01.804Z,100076.92
2023-11-18T00:42:28.920Z,100071.44
2023-11-18T00:44:55.969Z,100072.85
2023-11-18T00:47:23.898Z,100063.88
2023-11-18T00:49:52.848Z,100060.02
2023-11-18T00:52:20.090Z,100060.02
2023-11-18T00:54:46.982Z,100054.36
2023-11-18T00:57:13.883Z,100056.48
2023-11-18T00:59:44.344Z,100058.09
2023-11-18T01:02:11.462Z,100057.41
2023-11-18T01:04:38.460Z,100059.01
2023-11-18T01:07:05.589Z,100060.58
2023-11-18T01:09:37.544Z,100055.30
2023-11-18T01:12:08.431Z,100054.43
2023-11-18T01:14:40.395Z,100050.36
2023-11-18T01:17:07.581Z,100051.60
2023-11-18T01:19:34.385Z,100047.38
2023-11-18T01:22:01.579Z,100049.85
2023-11-18T01:24:28.952Z,100047.90
2023-11-18T01:26:55.769Z,100044.70
2023-11-18T01:29:23.026Z,100047.35
2023-11-18T01:31:52.596Z,100048.07
2023-11-18T01:34:23.604Z,100052.13
2023-11-18T01:36:50.743Z,100056.02
2023-11-18T01:39:21.572Z,100052.51
2023-11-18T01:41:49.896Z,100050.39
2023-11-18T01:44:18.328Z,100047.39
2023-11-18T01:46:46.494Z,100052.33
2023-11-18T01:49:18.771Z,100054.95
2023-11-18T01:51:46.965Z,100058.13
2023-11-18T01:54:17.065Z,100055.14
2023-11-18T01:56:47.843Z,100055.85
2023-11-18T01:59:18.951Z,100058.67
2023-11-18T02:01:53.632Z,100059.90
2023-11-18T02:04:21.913Z,100059.38
2023-11-18T02:06:49.513Z,100060.59
2023-11-18T02:09:17.913Z,100059.86
2023-11-18T02:11:49.664Z,100062.16
2023-11-18T02:14:20.663Z,100060.22
2023-11-18T02:16:47.561Z,100058.13
2023-11-18T02:19:25.146Z,100057.77
2023-11-18T02:21:54.783Z,100060.05
2023-11-18T02:24:30.199Z,100064.61
2023-11-18T02:26:58.712Z,100059.48
2023-11-18T02:29:27.097Z,100061.41
2023-11-18T02:31:59.361Z,100063.51
2023-11-18T02:34:29.070Z,100061.95
2023-11-18T02:36:56.539Z,100064.59
2023-11-18T02:39:44.253Z,100067.04
2023-11-18T02:42:11.502Z,100064.16
2023-11-18T02:44:39.271Z,100066.77
2023-11-18T02:47:06.197Z,100066.61
2023-11-18T02:49:35.050Z,100065.09
2023-11-18T02:52:01.633Z,100062.63
2023-11-18T02:54:28.978Z,100059.27
2023-11-18T02:56:56.140Z,100064.50
2023-11-18T02:59:23.321Z,100065.75
2023-11-18T03:01:54.218Z,100062.80
2023-11-18T03:04:21.005Z,100056.84
2023-11-18T03:06:47.831Z,100058.98
2023-11-18T03:09:14.557Z,100063.03
2023-11-18T03:11:41.300Z,100060.91
2023-11-18T03:14:10.119Z,100060.92
2023-11-18T03:16:39.572Z,100067.26
2023-11-18T03:19:07.675Z,100070.60
2023-11-18T03:21:34.653Z,100071.48
2023-11-18T03:24:01.362Z,100069.89
2023-11-18T03:26:28.308Z,100071.30
2023-11-18T03:28:55.211Z,100069.01
2023-11-18T03:31:22.778Z,100071.27
2023-11-18T03:33:49.775Z,100066.16
2023-11-18T03:36:18.551Z,100071.79
2023-11-18T03:38:45.422Z,100066.70
2023-11-18T03:41:13.512Z,100062.48
2023-11-18T03:43:40.168Z,100062.64
2023-11-18T03:46:07.995Z,100063.52
2023-11-18T03:48:34.821Z,100068.95
2023-11-18T03:51:02.296Z,100070.20
2023-11-18T03:53:29.226Z,100066.52
2023-11-18T03:55:56.098Z,100064.05
2023-11-18T03:58:22.914Z,100064.77
2023-11-18T04:00:50.074Z,100065.13
2023-11-18T04:03:16.949Z,100067.25
2023-11-18T04:05:43.701Z,100068.83
2023-11-18T04:08:12.274Z,100070.59
2023-11-18T04:10:40.070Z,100075.89
2023-11-18T04:13:07.161Z,100078.00
2023-11-18T04:15:35.847Z,100076.58
2023-11-18T04:18:03.316Z,100081.34
2023-11-18T04:20:30.250Z,100079.04
2023-11-18T04:22:57.137Z,100086.95
2023-11-18T04:25:24.157Z,100087.30
2023-11-18T04:27:51.199Z,100086.42
2023-11-18T04:30:18.782Z,100090.29
2023-11-18T04:32:45.750Z,100094.33
2023-11-18T04:35:12.879Z,100096.27
2023-11-18T04:37:43.390Z,100091.72
2023-11-18T04:40:11.554Z,100092.58
2023-11-18T04:42:41.159Z,100092.21
2023-11-18T04:46:09.761Z,100101.48
2023-11-18T04:48:41.571Z,100098.23
2023-11-18T04:51:10.363Z,100098.67
2023-11-18T04:53:38.276Z,100097.30
2023-11-18T05:03:46.131Z,100098.93
2023-11-18T05:13:07.710Z,100106.91
2023-11-18T05:15:35.229Z,100113.77
2023-11-18T05:18:02.319Z,100117.63
2023-11-18T05:20:29.577Z,100116.88
2023-11-18T05:22:56.541Z,100121.44
2023-11-18T05:25:23.361Z,100117.02
2023-11-18T05:27:50.309Z,100126.34
2023-11-18T05:30:18.602Z,100129.86
2023-11-18T05:32:46.071Z,100131.80
2023-11-18T05:35:13.160Z,100133.86
2023-11-18T05:37:41.634Z,100140.45
2023-11-18T05:40:10.321Z,100143.88
2023-11-18T05:42:40.406Z,100156.33
2023-11-18T05:45:09.995Z,100159.45
2023-11-18T05:47:37.658Z,100163.28
2023-11-18T05:50:06.315Z,100166.75
2023-11-18T05:52:33.489Z,100174.95
2023-11-18T05:55:00.644Z,100175.76
2023-11-18T05:57:27.934Z,100175.56
2023-11-18T05:59:55.568Z,100176.95
2023-11-18T06:02:24.440Z,100178.86
2023-11-18T06:04:51.863Z,100183.08
2023-11-18T06:07:19.785Z,100194.19
2023-11-18T06:09:47.343Z,100197.13
2023-11-18T06:12:14.324Z,100197.78
2023-11-18T06:14:42.584Z,100191.41
2023-11-18T06:17:09.633Z,100191.02
2023-11-18T06:19:36.610Z,100194.65
2023-11-18T06:22:04.028Z,100201.54
2023-11-18T06:24:31.175Z,100212.23
2023-11-18T06:27:00.200Z,100211.08
2023-11-18T06:29:27.324Z,100212.48
2023-11-18T06:31:54.408Z,100220.11
2023-11-18T06:34:21.468Z,100222.51
2023-11-18T06:36:48.367Z,100221.25
2023-11-18T06:39:17.151Z,100229.36
2023-11-18T06:41:49.219Z,100222.52
2023-11-18T06:44:18.898Z,100222.43
2023-11-18T06:46:46.001Z,100235.13
2023-11-18T06:49:16.109Z,100227.95
2023-11-18T06:51:43.474Z,100234.15
2023-11-18T06:54:11.627Z,100241.54
2023-11-18T06:56:43.102Z,100243.77
2023-11-18T06:59:14.220Z,100249.02
2023-11-18T07:01:43.173Z,100244.86
2023-11-18T07:04:10.067Z,100246.30
2023-11-18T07:06:40.230Z,100254.97
2023-11-18T07:09:17.549Z,100250.27
2023-11-18T07:11:44.766Z,100246.20
2023-11-18T07:14:11.752Z,100241.56
2023-11-18T07:16:40.353Z,100244.98
2023-11-18T07:19:08.090Z,100242.94
2023-11-18T07:21:35.396Z,100246.96
2023-11-18T07:24:03.095Z,100242.77
2023-11-18T07:26:30.115Z,100239.36
2023-11-18T07:28:57.032Z,100233.88
2023-11-18T07:31:25.280Z,100235.02
2023-11-18T07:33:53.131Z,100237.69
2023-11-18T07:36:22.737Z,100243.14
2023-11-18T07:38:50.980Z,100234.25
2023-11-18T07:41:30.161Z,100242.11
2023-11-18T07:43:58.644Z,100240.11
2023-11-18T07:46:26.230Z,100243.82
2023-11-18T07:48:53.183Z,100248.18
2023-11-18T07:51:23.846Z,100246.98
2023-11-18T07:53:50.625Z,100248.13
2023-11-18T07:56:17.519Z,100242.39
2023-11-18T07:58:47.747Z,100244.52
2023-11-18T08:01:16.802Z,100246.45
2023-11-18T08:03:44.495Z,100258.85
2023-11-18T08:06:12.584Z,100259.00
2023-11-18T08:08:39.473Z,100255.71
2023-11-18T08:11:07.067Z,100268.26
2023-11-18T08:13:34.260Z,100267.04
2023-11-18T08:16:01.908Z,100263.73
2023-11-18T08:18:31.761Z,100269.91
2023-11-18T08:21:00.860Z,100270.05
2023-11-18T08:23:28.891Z,100273.06
2023-11-18T08:25:56.024Z,100277.89
2023-11-18T08:28:23.275Z,100278.46
2023-11-18T08:30:52.187Z,100285.55
2023-11-18T08:33:20.541Z,100286.14
2023-11-18T08:35:48.439Z,100286.55
2023-11-18T08:38:15.483Z,100289.64
2023-11-18T08:40:43.575Z,100286.91
2023-11-18T08:43:11.868Z,100298.77
2023-11-18T08:45:38.797Z,100300.70
2023-11-18T08:48:08.651Z,100294.38
2023-11-18T08:50:36.465Z,100292.79
2023-11-18T08:53:06.004Z,100286.77
2023-11-18T08:55:39.943Z,100292.05
2023-11-18T08:58:19.426Z,100298.89
2023-11-18T09:00:48.704Z,100298.73
2023-11-18T09:03:25.081Z,100302.23
2023-11-18T09:05:59.531Z,100286.52
2023-11-18T09:08:38.860Z,100287.92
2023-11-18T09:11:06.813Z,100278.79
2023-11-18T09:13:35.310Z,100281.08
2023-11-18T09:16:09.120Z,100274.56
2023-11-18T09:18:42.616Z,100269.42
2023-11-18T09:21:15.207Z,100270.27
2023-11-18T09:23:42.684Z,100259.11
2023-11-18T09:26:10.894Z,100256.81
2023-11-18T09:28:38.322Z,100250.16
2023-11-18T09:31:05.738Z,100253.31
2023-11-18T09:33:34.037Z,100251.00
2023-11-18T09:36:07.956Z,100241.43
2023-11-18T09:38:41.041Z,100244.72
2023-11-18T09:41:11.579Z,100234.98
2023-11-18T09:43:43.782Z,100225.30
2023-11-18T09:46:13.919Z,100234.39
2023-11-18T09:48:53.185Z,100225.86
2023-11-18T09:51:21.725Z,100224.87
2023-11-18T09:53:55.137Z,100219.34
2023-11-18T09:56:44.357Z,100214.11
2023-11-18T09:59:20.219Z,100201.96
2023-11-18T10:01:53.943Z,100207.39
2023-11-18T10:04:21.251Z,100195.75
2023-11-18T10:06:50.775Z,100193.60
2023-11-18T10:09:19.623Z,100194.77
2023-11-18T10:11:49.630Z,100201.60
2023-11-18T10:14:17.089Z,100191.44
2023-11-18T10:16:47.503Z,100191.63
2023-11-18T10:19:15.021Z,100196.57
2023-11-18T10:21:41.977Z,100199.54
2023-11-18T10:24:14.983Z,100206.23
2023-11-18T10:26:45.599Z,100213.65
2023-11-18T10:29:14.333Z,100222.61
2023-11-18T10:31:46.155Z,100231.73
2023-11-18T10:34:16.342Z,100239.62
2023-11-18T10:36:44.535Z,100245.73
2023-11-18T10:39:14.763Z,100239.35
2023-11-18T10:41:46.545Z,100234.64
2023-11-18T10:44:16.819Z,100226.77
2023-11-18T10:46:53.981Z,100237.00
2023-11-18T10:49:21.565Z,100236.33
2023-11-18T10:51:48.558Z,100234.39
2023-11-18T10:54:18.079Z,100234.65
2023-11-18T10:56:49.118Z,100235.98
2023-11-18T10:59:17.012Z,100226.59
2023-11-18T11:01:44.821Z,100223.55
2023-11-18T11:04:12.699Z,100225.27
2023-11-18T11:06:44.384Z,100227.80
2023-11-18T11:09:17.442Z,100235.48
2023-11-18T11:11:50.147Z,100248.33
2023-11-18T11:14:18.685Z,100247.98
2023-11-18T11:16:54.619Z,100264.84
2023-11-18T11:19:45.417Z,100259.70
2023-11-18T11:22:16.003Z,100269.70
2023-11-18T11:24:51.999Z,100275.39
2023-11-18T11:27:40.884Z,100273.03
2023-11-18T11:30:15.956Z,100264.44
2023-11-18T11:33:03.472Z,100263.77
2023-11-18T11:35:31.944Z,100260.08
2023-11-18T11:38:05.158Z,100258.29
2023-11-18T11:40:32.433Z,100244.55
2023-11-18T11:43:01.847Z,100250.33
2023-11-18T11:45:31.603Z,100252.24
2023-11-18T11:48:20.388Z,100256.13
2023-11-18T11:51:04.436Z,100253.01
2023-11-18T11:53:36.714Z,100250.39
2023-11-18T11:56:07.626Z,100255.67
2023-11-18T11:58:37.416Z,100258.83
2023-11-18T12:01:24.298Z,100261.27
2023-11-18T12:03:58.123Z,100265.81
2023-11-18T12:06:26.816Z,100263.31
2023-11-18T12:08:54.348Z,100256.23
2023-11-18T12:11:22.860Z,100256.56
2023-11-18T12:14:24.552Z,100260.06
2023-11-18T12:17:01.793Z,100255.69
2023-11-18T12:19:37.488Z,100265.51
2023-11-18T12:22:13.506Z,100272.39
2023-11-18T12:24:40.566Z,100281.21
2023-11-18T12:27:12.920Z,100280.01
2023-11-18T12:29:44.400Z,100286.54
2023-11-18T12:32:17.391Z,100280.08
2023-11-18T12:34:51.165Z,100280.08
2023-11-18T12:37:27.651Z,100284.07
2023-11-18T12:40:39.182Z,100286.81
2023-11-18T12:43:06.558Z,100286.09
2023-11-18T12:46:16.024Z,100293.41
2023-11-18T12:48:47.175Z,100310.39
2023-11-18T12:51:19.862Z,100305.27
2023-11-18T12:53:50.830Z,100299.64
2023-11-18T12:56:20.896Z,100305.52
2023-11-18T12:58:48.159Z,100318.45
2023-11-18T13:01:16.720Z,100320.53
2023-11-18T13:03:44.758Z,100314.58
2023-11-18T13:06:14.846Z,100309.16
2023-11-18T13:08:41.908Z,100313.23
2023-11-18T13:11:16.444Z,100319.73
2023-11-18T13:13:43.776Z,100326.77
2023-11-18T13:16:10.960Z,100319.54
2023-11-18T13:18:50.160Z,100324.05
2023-11-18T13:21:21.020Z,100337.18
2023-11-18T13:23:53.225Z,100337.54
2023-11-18T13:26:20.402Z,100340.02
2023-11-18T13:28:48.848Z,100348.13
2023-11-18T13:31:17.812Z,100351.13
2023-11-18T13:33:44.765Z,100350.23
2023-11-18T13:36:11.850Z,100351.10
2023-11-18T13:38:38.811Z,100353.20
2023-11-18T13:41:08.119Z,100362.16
2023-11-18T13:43:44.971Z,100364.81
2023-11-18T13:46:14.991Z,100366.38
2023-11-18T13:48:41.955Z,100372.71
2023-11-18T13:51:13.478Z,100377.81
2023-11-18T13:53:41.525Z,100383.23
2023-11-18T13:56:09.611Z,100382.90
2023-11-18T13:58:39.660Z,100382.85
2023-11-18T14:01:08.636Z,100387.88
2023-11-18T14:03:37.742Z,100383.95
2023-11-18T14:06:11.195Z,100386.00
2023-11-18T14:08:38.550Z,100402.99
2023-11-18T14:11:11.506Z,100403.82
2023-11-18T14:13:41.682Z,100401.23
2023-11-18T14:16:10.246Z,100399.18
2023-11-18T14:18:37.185Z,100406.87
2023-11-18T14:21:06.318Z,100406.84
2023-11-18T14:23:33.383Z,100405.08
2023-11-18T14:26:00.391Z,100410.33
2023-11-18T14:28:28.134Z,100411.05
2023-11-18T14:30:55.021Z,100413.34
2023-11-18T14:33:21.833Z,100414.61
2023-11-18T14:35:48.619Z,100409.71
2023-11-18T14:38:15.870Z,100401.47
2023-11-18T14:40:42.931Z,100403.05
2023-11-18T14:43:09.831Z,100403.73
2023-11-18T14:45:38.365Z,100401.90
2023-11-18T14:48:05.908Z,100410.77
2023-11-18T14:50:32.986Z,100409.02
2023-11-18T14:53:00.111Z,100399.70
2023-11-18T14:55:27.678Z,100411.17
2023-11-18T14:57:55.913Z,100413.52
2023-11-18T15:00:25.416Z,100424.61
2023-11-18T15:02:55.438Z,100426.08
2023-11-18T15:05:24.152Z,100424.40
2023-11-18T15:07:53.985Z,100422.05
2023-11-18T15:10:22.678Z,100419.32
2023-11-18T15:12:53.569Z,100423.50
2023-11-18T15:15:31.999Z,100419.16
2023-11-18T15:18:00.035Z,100425.88
2023-11-18T15:20:27.258Z,100423.31
2023-11-18T15:22:54.682Z,100430.17
2023-11-18T15:25:21.622Z,100426.23
2023-11-18T15:27:48.920Z,100428.64
2023-11-18T15:30:17.244Z,100422.30
2023-11-18T15:32:45.900Z,100423.65
2023-11-18T15:35:14.246Z,100425.76
2023-11-18T15:37:46.588Z,100418.30
2023-11-18T15:40:19.986Z,100424.16
2023-11-18T15:42:50.823Z,100425.86
2023-11-18T15:45:21.601Z,100425.20
2023-11-18T15:47:48.850Z,100422.23
2023-11-18T15:50:16.855Z,100417.45
2023-11-18T15:52:43.975Z,100415.73
2023-11-18T15:55:14.178Z,100413.19
2023-11-18T15:57:48.182Z,100412.52
2023-11-18T16:00:18.089Z,100425.17
2023-11-18T16:02:49.204Z,100433.16
2023-11-18T16:05:21.344Z,100440.98
2023-11-18T16:07:52.524Z,100443.77
2023-11-18T16:10:21.951Z,100450.98
2023-11-18T16:12:53.316Z,100454.98
2023-11-18T16:15:23.253Z,100460.23
2023-11-18T16:17:50.448Z,100454.96
2023-11-18T16:20:19.393Z,100466.20
2023-11-18T16:22:49.922Z,100458.45
2023-11-18T16:25:18.904Z,100460.11
2023-11-18T16:27:52.705Z,100466.19
2023-11-18T16:30:24.690Z,100461.64
2023-11-18T16:32:52.182Z,100458.39
2023-11-18T16:35:20.752Z,100458.92
2023-11-18T16:37:48.398Z,100461.48
2023-11-18T16:40:16.586Z,100463.49
2023-11-18T16:42:48.104Z,100470.17
2023-11-18T16:45:15.371Z,100471.77
2023-11-18T16:47:42.658Z,100476.90
2023-11-18T16:50:11.335Z,100478.11
2023-11-18T16:52:41.531Z,100478.30
2023-11-18T16:55:12.479Z,100489.43
2023-11-18T16:57:39.834Z,100503.16
2023-11-18T17:00:17.483Z,100509.66
2023-11-18T17:04:13.500Z,100504.58
2023-11-18T17:06:41.108Z,100490.29
2023-11-18T17:09:08.682Z,100487.85
2023-11-18T17:18:11.847Z,100518.87
2023-11-18T17:20:38.768Z,100521.66
2023-11-18T17:23:06.055Z,100516.63
2023-11-18T17:25:33.082Z,100519.19
2023-11-18T17:28:03.843Z,100512.86
2023-11-18T17:30:35.286Z,100503.12
2023-11-18T17:33:03.184Z,100507.48
2023-11-18T17:35:30.492Z,100511.29
2023-11-18T17:37:57.230Z,100512.02
2023-11-18T17:40:24.053Z,100508.98
2023-11-18T17:42:54.418Z,100505.23
2023-11-18T17:45:22.587Z,100515.77
2023-11-18T17:47:49.847Z,100524.89
2023-11-18T17:50:19.386Z,100535.26
2023-11-18T17:52:48.075Z,100533.73
2023-11-18T17:55:18.073Z,100537.95
2023-11-18T17:57:45.148Z,100531.70
2023-11-18T18:00:22.885Z,100527.99
2023-11-18T18:02:50.349Z,100533.13
2023-11-18T18:05:17.640Z,100527.61
2023-11-18T18:07:44.581Z,100533.65
2023-11-18T18:10:12.614Z,100535.79
2023-11-18T18:12:40.387Z,100541.23
2023-11-18T18:15:09.304Z,100543.05
2023-11-18T18:17:36.958Z,100545.48
2023-11-18T18:20:09.012Z,100552.31
2023-11-18T18:22:37.005Z,100553.38
2023-11-18T18:25:04.868Z,100558.58
2023-11-18T18:27:35.234Z,100559.14
2023-11-18T18:30:02.678Z,100554.40
2023-11-18T18:32:29.851Z,100558.31
2023-11-18T18:34:56.694Z,100554.63
2023-11-18T18:37:25.936Z,100560.57
2023-11-18T18:39:53.431Z,100567.02
2023-11-18T18:42:20.610Z,100568.29
2023-11-18T18:44:47.546Z,100568.31
2023-11-18T18:47:14.514Z,100564.30
2023-11-18T18:49:41.315Z,100560.38
2023-11-18T18:52:08.704Z,100552.63
2023-11-18T18:54:35.545Z,100554.61
2023-11-18T18:57:04.636Z,100553.73
2023-11-18T18:59:31.893Z,100553.42
2023-11-18T19:01:58.737Z,100548.27
2023-11-18T19:04:25.481Z,100544.45
2023-11-18T19:06:52.311Z,100543.73
2023-11-18T19:09:19.827Z,100538.98
2023-11-18T19:11:46.547Z,100540.85
2023-11-18T19:14:13.549Z,100543.09
2023-11-18T19:16:43.314Z,100551.63
2023-11-18T19:19:10.576Z,100550.86
2023-11-18T19:21:37.657Z,100544.09
2023-11-18T19:24:06.040Z,100546.46
2023-11-18T19:26:36.552Z,100547.09
2023-11-18T19:29:03.944Z,100538.11
2023-11-18T19:31:30.782Z,100539.75
2023-11-18T19:33:59.001Z,100539.81
2023-11-18T19:36:26.118Z,100538.95
2023-11-18T19:38:53.065Z,100535.41
2023-11-18T19:41:20.687Z,100534.41
2023-11-18T19:43:47.555Z,100531.39
2023-11-18T19:46:14.381Z,100532.02
2023-11-18T19:48:41.409Z,100529.52
2023-11-18T19:55:58.135Z,100526.55
2023-11-18T19:58:25.013Z,100528.30
2023-11-18T20:00:53.476Z,100530.60
2023-11-18T20:03:22.864Z,100534.52
2023-11-18T20:05:50.286Z,100534.73
2023-11-18T20:08:19.835Z,100535.92
2023-11-18T20:10:47.718Z,100534.70
2023-11-18T20:13:15.336Z,100539.66
2023-11-18T20:15:41.976Z,100541.98
2023-11-18T20:18:11.773Z,100539.08
2023-11-18T20:20:38.890Z,100547.52
2023-11-18T20:23:05.859Z,100554.25
2023-11-18T20:30:23.372Z,100560.79
2023-11-18T20:32:52.168Z,100561.69
2023-11-18T20:35:19.443Z,100562.83
2023-11-18T20:42:22.291Z,100556.20
2023-11-18T20:44:49.440Z,100549.93
2023-11-18T20:47:16.423Z,100547.20
2023-11-18T20:49:43.346Z,100547.48
2023-11-18T20:52:10.246Z,100548.09
2023-11-18T20:54:37.058Z,100543.48
2023-11-18T20:57:05.400Z,100542.42
2023-11-18T20:59:33.117Z,100542.95
2023-11-18T21:02:02.791Z,100533.30
2023-11-18T21:04:29.984Z,100526.14
2023-11-18T21:06:56.957Z,100527.37
2023-11-18T21:09:23.636Z,100530.52
2023-11-18T21:11:50.512Z,100529.83
2023-11-18T21:14:17.563Z,100526.34
2023-11-18T21:16:46.685Z,100528.84
2023-11-18T21:19:13.801Z,100528.96
2023-11-18T21:21:40.599Z,100530.84
2023-11-18T21:24:07.923Z,100525.23
2023-11-18T21:26:34.698Z,100525.56
2023-11-18T21:29:01.717Z,100521.74
2023-11-18T21:31:29.504Z,100522.20
2023-11-18T21:33:56.426Z,100522.75
2023-11-18T21:36:23.315Z,100524.38
2023-11-18T21:38:54.029Z,100518.83
2023-11-18T21:41:21.293Z,100513.92
2023-11-18T21:43:47.974Z,100514.54
2023-11-18T21:46:15.820Z,100515.09
2023-11-18T21:48:42.511Z,100510.42
2023-11-18T21:51:11.393Z,100509.98
2023-11-18T21:53:40.957Z,100507.93
2023-11-18T21:56:07.922Z,100506.23
2023-11-18T21:58:34.658Z,100505.71
2023-11-18T22:01:01.450Z,100510.76
2023-11-18T22:03:29.502Z,100510.77
2023-11-18T22:05:56.392Z,100507.36
2023-11-18T22:08:23.207Z,100508.09
2023-11-18T22:10:51.084Z,100498.91
2023-11-18T22:13:17.715Z,100495.50
2023-11-18T22:15:44.769Z,100495.17
2023-11-18T22:18:11.378Z,100494.27
2023-11-18T22:20:43.860Z,100490.70
2023-11-18T22:23:10.603Z,100481.11
2023-11-18T22:25:37.351Z,100482.80
2023-11-18T22:28:04.503Z,100487.13
2023-11-18T22:30:31.444Z,100487.11
2023-11-18T22:33:00.305Z,100489.05
2023-11-18T22:35:27.881Z,100487.70
2023-11-18T22:37:56.969Z,100488.66
2023-11-18T22:40:25.558Z,100484.48
2023-11-18T22:42:53.443Z,100487.34
2023-11-18T22:45:20.174Z,100485.23
2023-11-18T22:47:47.745Z,100489.73
2023-11-18T22:50:15.251Z,100485.45
2023-11-18T22:52:42.231Z,100480.30
2023-11-18T22:55:15.162Z,100480.09
2023-11-18T22:57:43.441Z,100476.30
2023-11-18T23:00:28.989Z,100473.36
2023-11-18T23:02:55.943Z,100467.23
2023-11-18T23:05:26.000Z,100466.91
2023-11-18T23:07:53.364Z,100467.45
2023-11-18T23:10:20.051Z,100468.41
2023-11-18T23:12:46.831Z,100462.15
2023-11-18T23:15:13.791Z,100463.73
2023-11-18T23:17:40.573Z,100462.67
2023-11-18T23:20:11.939Z,100465.37
2023-11-18T23:22:39.174Z,100465.70
2023-11-18T23:25:06.160Z,100466.92
2023-11-18T23:27:33.150Z,100471.91
2023-11-18T23:30:00.617Z,100474.71
2023-11-18T23:32:28.326Z,100473.70
2023-11-18T23:34:56.331Z,100477.98
2023-11-18T23:37:24.804Z,100477.05
2023-11-18T23:39:54.637Z,100474.70
2023-11-18T23:42:24.753Z,100475.74
2023-11-18T23:44:52.399Z,100484.36
2023-11-18T23:47:20.336Z,100486.36
2023-11-18T23:52:23.778Z,100486.38
2023-11-18T23:54:50.901Z,100487.05
2023-11-18T23:57:19.968Z,100497.00
2023-11-18T23:59:46.758Z,100495.36
